• Join FlightAware (Why Join?)
  • Login
  • US Flag 
12:38AM EST


 

Airport Tracker/Info


-or-


 

Live Flight TrackerFlight Track Log ✈ N9032V ✈ 07-May-2012 ✈ KGRR - KARB

Flight Track Log - Related Links

Times and Time Zones

All times are in EDT time to prevent confusion due to time zone crossing. See the N9032V flight status page for this flight to view local times or setup timezone preferences in your user account.

Time Position Orientation Groundspeed Altitude Reporting Facility
EDT Latitude Longitude Course Direction KTS MPH feet Rate Location/Type
07:12PM 42.8333 -85.3279 105° East  Level FlightAware Approximate
07:13PM 42.8312 -85.2724 106° East  Level FlightAware Approximate
07:14PM 42.8122 -85.2228 105° East  Level FlightAware Approximate
07:15PM 42.7932 -85.1733 104° East  Level FlightAware Approximate
07:16PM 42.7742 -85.1237 103° East  Level FlightAware Approximate
07:17PM 42.7551 -85.0743 102° East  Level FlightAware Approximate
07:18PM 42.7361 -85.0248 101° East  Level FlightAware Approximate
07:19PM 42.7170 -84.9754 99° East  Level FlightAware Approximate
07:20PM 42.6979 -84.9260 97° East  Level FlightAware Approximate
07:21PM 42.6788 -84.8766 94° East  Level FlightAware Approximate
07:22PM 42.6596 -84.8273 91° East  Level FlightAware Approximate
07:23PM 42.6405 -84.7780 86° East  Level FlightAware Approximate
07:24PM 42.6213 -84.7287 80° East  Level FlightAware Approximate
07:25PM 42.6021 -84.6794 72° East  Level FlightAware Approximate
07:26PM 42.5828 -84.6302 61° Northeast  Level FlightAware Approximate
07:27PM 42.5636 -84.5810 47° Northeast  Level FlightAware Approximate
07:27PM 42.6558 -84.4483 99° East 180 207 5,100  Level Cleveland Center
07:32PM 42.6197 -84.1469 102° East 181 208 5,000 -60 Descending Cleveland Center
07:33PM 42.6092 -84.0817 104° East 179 206 5,000  Level Cleveland Center
07:34PM 42.5967 -84.0161 107° East 178 205 5,000  Level Cleveland Center
07:35PM 42.5819 -83.9503 133° Southeast 179 206 5,000 -60 Level Cleveland Center
07:36PM 42.5497 -83.9033 128° Southeast 175 201 4,900  Descending Cleveland Center
07:37PM 42.5200 -83.8511 129° Southeast 179 206 5,000  Climbing Cleveland Center
07:38PM 42.4883 -83.7989 126° Southeast 181 208 5,000  Level Cleveland Center
07:39PM 42.4583 -83.7439 114° Southeast 184 212 5,000  Level Cleveland Center
07:40PM 42.4372 -83.6808 130° Southeast 183 211 5,000 -300 Level Cleveland Center
07:41PM 42.4072 -83.6317 178° South 186 214 4,400 -840 Descending Cleveland Center
07:42PM 42.3614 -83.6294 209° Southwest 176 203 3,400 -1,020 Descending Cleveland Center
07:43PM 42.3231 -83.6583 210° Southwest 174 200 2,500 -540 Descending Cleveland Center
07:44PM 42.2850 -83.6875 206° Southwest 147 169 2,400 -480 Descending Cleveland Center
07:45PM 42.2531 -83.7083 215° Southwest 99 114 1,500 -480 Descending Cleveland Center
07:46PM 42.2358 -83.7244 232° Southwest 79 91 1,300 -240 Descending Cleveland Center
07:47PM 42.2250 -83.7433 232° Southwest 79 91 1,100 -240 Descending Cleveland Center